Time Latitude Longitude Accuracy (66% radius in meters) Altitude (meters) Speed (km/hour) Bearing (degrees) Battery (%) GPS flag
07:33:16 55.921088 37.361788 4 174 1.2052212953568 36.724494934082 87 1 delete
07:33:07 55.921035 37.361712 6 174 1.0244100093842 50.753528594971 87 1 delete
07:33:02 55.921009 37.361629 6 175 1.040962100029 54.821128845215 87 1 delete
07:32:42 55.920963 37.361561 6 175 1.1465095281601 67.470367431641 87 1 delete
07:32:38 55.920935 37.361472 6 177 3.4640810489655 21.456516265869 87 1 delete
07:32:36 55.920862 37.361414 4 178 4.0590748786926 24.291175842285 87 1 delete
07:32:34 55.920794 37.361340 4 180 3.0352659225464 43.615001678467 87 1 delete
07:32:32 55.920766 37.361266 4 180 2.6084098815918 83.9150390625 87 1 delete
07:32:27 55.920748 37.361162 4 175 2.9538505077362 18.865879058838 87 1 delete
07:32:25 55.920682 37.361151 4 176 4.1947703361511 325.3092956543 87 1 delete
07:32:23 55.920621 37.361231 4 177 3.3727700710297 344.55023193359 87 1 delete
07:32:21 55.920555 37.361224 4 178 4.439661026001 51.493309020996 87 1 delete
07:32:19 55.920506 37.361105 4 178 4.6167674064636 53.295066833496 87 1 delete
07:32:17 55.920456 37.360982 4 178 4.151328086853 51.923332214355 87 1 delete
07:32:15 55.920409 37.360870 4 178 3.9056000709534 49.664630889893 87 1 delete
07:32:13 55.920365 37.360774 4 177 3.8556368350983 50.66873550415 87 1 delete
07:32:11 55.920325 37.360684 4 175 3.8604769706726 50.555812835693 87 1 delete
07:32:09 55.920276 37.360578 4 175 3.9168300628662 35.817272186279 87 1 delete
07:32:07 55.920221 37.360503 4 174 3.4335355758667 33.949638366699 87 1 delete
07:32:05 55.920175 37.360449 4 173 3.3794460296631 32.952899932861 87 1 delete
07:32:03 55.920119 37.360388 4 174 4.1066317558289 36.422904968262 87 1 delete
07:32:01 55.920062 37.360310 4 173 3.8277125358582 37.666862487793 87 1 delete
07:31:59 55.920011 37.360234 4 172 3.6223454475403 35.096145629883 87 1 delete
07:31:57 55.919950 37.360157 4 172 4.1999831199646 29.534091949463 87 1 delete
07:31:55 55.919881 37.360089 4 172 4.1403608322144 28.976303100586 87 1 delete
07:31:53 55.919814 37.360027 4 172 4.3147954940796 31.891895294189 87 1 delete
07:31:51 55.919749 37.359957 4 172 4.0529718399048 34.293190002441 87 1 delete
07:31:49 55.919686 37.359878 4 172 4.2155613899231 35.667499542236 87 1 delete
07:31:47 55.919622 37.359794 4 171 4.0564045906067 39.238227844238 87 1 delete
07:31:45 55.919568 37.359707 4 170 3.6230342388153 38.970497131348 87 1 delete
07:31:43 55.919518 37.359640 4 170 3.80233335495 37.362255096436 87 1 delete
07:31:41 55.919463 37.359573 4 170 4.0539402961731 35.891494750977 87 1 delete
07:31:39 55.919403 37.359498 4 169 3.8438632488251 37.948711395264 87 1 delete
07:31:37 55.919340 37.359409 4 170 4.2127122879028 41.61999130249 87 1 delete
07:31:35 55.919277 37.359321 4 170 4.5312519073486 42.47021484375 87 1 delete
07:31:33 55.919214 37.359216 4 170 4.6447105407715 47.100273132324 87 1 delete
07:31:31 55.919160 37.359112 4 170 4.3566617965698 51.152229309082 87 1 delete
07:31:29 55.919112 37.358995 4 169 4.4928579330444 53.215663909912 87 1 delete
07:31:27 55.919068 37.358878 4 168 4.2272362709045 52.216728210449 87 1 delete
07:31:25 55.919024 37.358761 4 168 4.5916275978088 50.485443115234 87 1 delete
07:31:24 55.918998 37.358694 4 168 4.6654081344604 49.503017425537 87 1 delete
07:31:23 55.918970 37.358629 4 168 4.73171043396 47.515651702881 87 1 delete
07:31:21 55.918913 37.358515 4 168 4.4440665245056 45.376461029053 87 1 delete
07:31:19 55.918839 37.358456 4 168 4.8025126457214 3.0399045944214 87 1 delete
07:31:18 55.918792 37.358452 4 168 4.7634043693542 3.9268016815186 87 1 delete
07:31:16 55.918704 37.358414 4 168 5.0658054351807 32.623519897461 87 1 delete
07:31:15 55.918666 37.358366 4 168 5.6676659584045 49.799491882324 87 1 delete
07:31:14 55.918631 37.358289 4 168 5.9570660591125 50.356224060059 87 1 delete
07:31:13 55.918593 37.358208 4 168 5.9521079063416 50.72386932373 87 1 delete
07:31:12 55.918556 37.358132 4 169 5.8836417198181 51.14143371582 87 1 delete